Time;durP1;ratioP1;P1;durP2;ratioP2;P2;SDS_P1;SDS_P2;PMS_P1;PMS_P2;Temp;Humidity;BMP_temperature;BMP_pressure;BME280_temperature;BME280_humidity;BME280_pressure;Samples;Min_cycle;Max_cycle;Signal;HPM_P1;HPM_P2
2022/11/26 00:02:15;;;;;;;44.58;15.13;;;;;;;;;;4892868;29;20037;-61
2022/11/26 00:04:40;;;;;;;55.58;14.48;;;;;;;;;;4892479;29;20123;-61
2022/11/26 00:07:11;;;;;;;38.13;15.27;;;;;;;;;;4895576;29;20091;-62
2022/11/26 00:09:37;;;;;;;37.03;14.63;;;;;;;;;;4894522;29;20043;-62
2022/11/26 00:12:31;;;;;;;44.30;15.80;;;;;;;;;;4894774;29;20043;-62
2022/11/26 00:14:57;;;;;;;43.42;15.25;;;;;;;;;;4894224;29;20103;-61
2022/11/26 00:17:23;;;;;;;49.80;15.27;;;;;;;;;;4910709;29;20384;-63
2022/11/26 00:19:49;;;;;;;43.47;14.05;;;;;;;;;;4892882;29;20028;-61
2022/11/26 00:22:32;;;;;;;47.88;15.13;;;;;;;;;;4894495;29;20412;-63
2022/11/26 00:24:58;;;;;;;52.65;15.10;;;;;;;;;;4895304;29;20063;-61
2022/11/26 00:27:27;;;;;;;42.92;15.20;;;;;;;;;;4894665;29;20044;-63
2022/11/26 00:29:53;;;;;;;51.58;15.55;;;;;;;;;;4892288;29;20062;-62
2022/11/26 00:32:22;;;;;;;44.35;14.60;;;;;;;;;;4896349;29;20385;-61
2022/11/26 00:34:47;;;;;;;56.53;15.38;;;;;;;;;;4893677;29;20040;-63
2022/11/26 00:37:27;;;;;;;44.50;15.07;;;;;;;;;;4895359;29;20032;-61
2022/11/26 00:39:53;;;;;;;43.50;15.27;;;;;;;;;;4894482;29;20043;-61
2022/11/26 00:42:18;;;;;;;34.88;13.88;;;;;;;;;;4897242;29;20040;-61
2022/11/26 00:44:44;;;;;;;45.30;14.35;;;;;;;;;;4893209;29;20032;-61
2022/11/26 00:47:09;;;;;;;40.45;14.38;;;;;;;;;;4896399;29;20036;-60
2022/11/26 00:49:35;;;;;;;48.15;14.82;;;;;;;;;;4895183;29;20039;-61
2022/11/26 00:52:01;;;;;;;44.33;14.18;;;;;;;;;;4893691;29;20402;-63
2022/11/26 00:54:27;;;;;;;45.25;13.90;;;;;;;;;;4898211;29;20056;-64
2022/11/26 00:56:53;;;;;;;37.95;14.18;;;;;;;;;;4897790;29;20068;-61
2022/11/26 00:59:21;;;;;;;42.08;14.13;;;;;;;;;;4902145;29;20056;-61
2022/11/26 01:01:46;;;;;;;47.58;14.85;;;;;;;;;;4917331;29;20112;-62
2022/11/26 01:04:12;;;;;;;40.00;14.45;;;;;;;;;;4907785;29;20126;-61
2022/11/26 01:06:39;;;;;;;46.72;15.02;;;;;;;;;;4898524;29;20024;-62
2022/11/26 01:09:05;;;;;;;42.13;14.70;;;;;;;;;;4898547;29;20060;-61
2022/11/26 01:11:31;;;;;;;42.67;14.82;;;;;;;;;;4912188;29;20080;-61
2022/11/26 01:13:58;;;;;;;42.55;13.88;;;;;;;;;;4898306;29;20077;-61
2022/11/26 01:16:33;;;;;;;47.83;13.75;;;;;;;;;;4897909;29;20043;-61
2022/11/26 01:18:59;;;;;;;37.40;14.48;;;;;;;;;;4898613;29;20033;-62
2022/11/26 01:21:27;;;;;;;36.60;13.52;;;;;;;;;;4899086;29;20414;-63
2022/11/26 01:23:52;;;;;;;39.13;13.65;;;;;;;;;;4896298;29;20124;-62
2022/11/26 01:26:21;;;;;;;39.08;13.93;;;;;;;;;;4897243;29;20112;-65
2022/11/26 01:28:47;;;;;;;36.47;13.25;;;;;;;;;;4907749;29;20101;-65
2022/11/26 01:31:18;;;;;;;42.40;13.90;;;;;;;;;;4906725;29;20036;-62
2022/11/26 01:33:44;;;;;;;45.50;14.85;;;;;;;;;;4896734;29;20614;-62
2022/11/26 01:36:30;;;;;;;39.58;13.35;;;;;;;;;;4898632;29;20115;-62
2022/11/26 01:39:12;;;;;;;35.40;12.95;;;;;;;;;;4890999;29;20032;-61
2022/11/26 01:41:51;;;;;;;40.08;14.20;;;;;;;;;;4896047;29;20033;-62
2022/11/26 01:44:21;;;;;;;38.53;13.85;;;;;;;;;;4899074;29;20056;-62
2022/11/26 01:46:47;;;;;;;33.83;13.07;;;;;;;;;;4912568;29;20599;-62
2022/11/26 01:49:27;;;;;;;38.40;13.52;;;;;;;;;;4917381;29;20115;-61
2022/11/26 01:52:19;;;;;;;40.25;13.23;;;;;;;;;;4914619;29;20469;-62
2022/11/26 01:54:44;;;;;;;38.35;12.77;;;;;;;;;;4909760;29;20060;-62
2022/11/26 01:57:17;;;;;;;36.47;13.25;;;;;;;;;;4904234;29;20093;-62
2022/11/26 01:59:58;;;;;;;38.83;13.18;;;;;;;;;;4909845;29;20036;-62
2022/11/26 02:02:26;;;;;;;39.97;14.20;;;;;;;;;;4892683;29;20036;-62
2022/11/26 02:05:10;;;;;;;36.65;13.88;;;;;;;;;;4896815;29;20794;-62
2022/11/26 02:07:35;;;;;;;38.67;13.55;;;;;;;;;;4897847;29;20048;-62
2022/11/26 02:10:01;;;;;;;41.05;13.18;;;;;;;;;;4899329;29;20499;-62
2022/11/26 02:12:27;;;;;;;34.00;13.50;;;;;;;;;;4916980;29;20537;-62
2022/11/26 02:14:53;;;;;;;39.28;13.20;;;;;;;;;;4904857;29;20111;-62
2022/11/26 02:17:43;;;;;;;33.95;13.00;;;;;;;;;;4909371;29;20070;-62
2022/11/26 02:20:24;;;;;;;26.90;12.10;;;;;;;;;;4903100;29;20036;-61
2022/11/26 02:22:49;;;;;;;30.58;12.98;;;;;;;;;;4895833;29;20628;-61
2022/11/26 02:25:27;;;;;;;35.78;13.30;;;;;;;;;;4899263;29;20048;-61
2022/11/26 02:28:20;;;;;;;46.28;14.32;;;;;;;;;;4895161;29;20029;-62
2022/11/26 02:30:52;;;;;;;30.60;13.43;;;;;;;;;;4885049;29;20092;-62
2022/11/26 02:33:33;;;;;;;34.60;12.27;;;;;;;;;;4886660;29;20478;-62
2022/11/26 02:36:32;;;;;;;31.42;12.48;;;;;;;;;;4897252;29;20127;-62
2022/11/26 02:39:10;;;;;;;36.42;12.77;;;;;;;;;;4899754;29;20084;-62
2022/11/26 02:42:03;;;;;;;38.25;12.18;;;;;;;;;;4898213;29;20037;-63
2022/11/26 02:44:42;;;;;;;32.88;12.27;;;;;;;;;;4894057;29;20104;-62
2022/11/26 02:47:13;;;;;;;36.03;11.98;;;;;;;;;;4895428;29;20029;-62
2022/11/26 02:49:42;;;;;;;28.33;11.75;;;;;;;;;;4896016;29;20044;-62
2022/11/26 02:52:10;;;;;;;29.45;11.35;;;;;;;;;;4896505;29;20116;-62
2022/11/26 02:54:36;;;;;;;27.88;11.68;;;;;;;;;;4895849;29;20135;-63
2022/11/26 02:57:06;;;;;;;28.50;11.20;;;;;;;;;;4898432;29;20041;-62
2022/11/26 02:59:32;;;;;;;26.02;11.23;;;;;;;;;;4894919;29;20036;-61
2022/11/26 03:02:04;;;;;;;39.38;12.02;;;;;;;;;;4906048;29;20039;-62
2022/11/26 03:04:39;;;;;;;30.98;11.13;;;;;;;;;;4900821;29;20036;-62
2022/11/26 03:07:06;;;;;;;33.35;12.25;;;;;;;;;;4906942;29;20039;-62
2022/11/26 03:09:40;;;;;;;36.58;13.27;;;;;;;;;;4912346;29;20043;-62
2022/11/26 03:12:06;;;;;;;34.92;13.27;;;;;;;;;;4914686;29;20107;-61
2022/11/26 03:14:31;;;;;;;40.35;12.75;;;;;;;;;;4898969;29;20043;-63
2022/11/26 03:16:57;;;;;;;39.40;14.45;;;;;;;;;;4895452;29;20391;-62
2022/11/26 03:19:22;;;;;;;48.55;14.40;;;;;;;;;;4897864;29;20041;-62
2022/11/26 03:21:48;;;;;;;34.95;13.00;;;;;;;;;;4895988;29;20485;-63
2022/11/26 03:24:13;;;;;;;34.35;12.63;;;;;;;;;;4902124;29;20043;-62
2022/11/26 03:26:38;;;;;;;33.33;12.25;;;;;;;;;;4898762;29;20107;-63
2022/11/26 03:29:04;;;;;;;31.60;13.23;;;;;;;;;;4890790;29;20033;-62
2022/11/26 03:31:29;;;;;;;33.80;11.75;;;;;;;;;;4876502;29;20037;-61
2022/11/26 03:33:54;;;;;;;27.13;11.90;;;;;;;;;;4893738;29;20029;-61
2022/11/26 03:36:20;;;;;;;30.77;11.65;;;;;;;;;;4895343;29;20035;-63
2022/11/26 03:38:46;;;;;;;25.80;10.63;;;;;;;;;;4893540;29;20036;-62
2022/11/26 03:41:11;;;;;;;30.45;10.70;;;;;;;;;;4894090;29;20036;-63
2022/11/26 03:43:37;;;;;;;33.47;11.25;;;;;;;;;;4894595;29;20044;-63
2022/11/26 03:46:02;;;;;;;31.38;11.50;;;;;;;;;;4896440;29;20067;-62
2022/11/26 03:48:27;;;;;;;29.70;10.75;;;;;;;;;;4910259;29;20084;-62
2022/11/26 03:50:53;;;;;;;24.58;10.73;;;;;;;;;;4906824;29;20139;-62
2022/11/26 03:53:18;;;;;;;29.77;10.68;;;;;;;;;;4908051;29;20048;-62
2022/11/26 03:55:43;;;;;;;27.60;10.35;;;;;;;;;;4908137;29;20073;-62
2022/11/26 03:58:09;;;;;;;33.42;10.70;;;;;;;;;;4892873;29;20039;-62
2022/11/26 04:00:34;;;;;;;29.67;11.48;;;;;;;;;;4895439;29;20043;-62
2022/11/26 04:03:00;;;;;;;31.92;11.20;;;;;;;;;;4892539;29;20035;-62
2022/11/26 04:05:25;;;;;;;30.98;11.13;;;;;;;;;;4894581;29;20167;-63
2022/11/26 04:07:50;;;;;;;35.20;11.73;;;;;;;;;;4894592;29;20435;-62
2022/11/26 04:10:16;;;;;;;31.90;11.48;;;;;;;;;;4892433;29;20111;-63
2022/11/26 04:12:41;;;;;;;35.20;11.23;;;;;;;;;;4893355;29;20039;-62
2022/11/26 04:15:07;;;;;;;32.08;11.48;;;;;;;;;;4895299;29;20029;-63
2022/11/26 04:17:33;;;;;;;31.50;11.77;;;;;;;;;;4893019;29;20087;-63
2022/11/26 04:19:58;;;;;;;35.95;12.32;;;;;;;;;;4913547;29;20796;-62
2022/11/26 04:22:23;;;;;;;35.55;12.32;;;;;;;;;;4894885;29;20048;-61
2022/11/26 04:24:49;;;;;;;39.63;12.48;;;;;;;;;;4906473;29;20127;-62
2022/11/26 04:27:14;;;;;;;33.75;12.30;;;;;;;;;;4908598;29;20493;-63
2022/11/26 04:29:39;;;;;;;42.13;12.18;;;;;;;;;;4895210;29;20116;-63
2022/11/26 04:32:05;;;;;;;34.97;12.60;;;;;;;;;;4895344;29;20783;-63
2022/11/26 04:34:31;;;;;;;32.35;11.80;;;;;;;;;;4901609;29;20176;-62
2022/11/26 04:36:56;;;;;;;35.92;11.43;;;;;;;;;;4893055;29;20040;-63
2022/11/26 04:39:21;;;;;;;39.80;12.40;;;;;;;;;;4895312;29;20036;-63
2022/11/26 04:41:47;;;;;;;31.23;12.18;;;;;;;;;;4896919;29;20589;-63
2022/11/26 04:44:12;;;;;;;37.90;12.15;;;;;;;;;;4895287;29;20545;-63
2022/11/26 04:46:38;;;;;;;36.33;12.75;;;;;;;;;;4902626;29;20047;-64
2022/11/26 04:49:03;;;;;;;35.13;13.45;;;;;;;;;;4894918;29;20044;-64
2022/11/26 04:51:29;;;;;;;34.15;12.90;;;;;;;;;;4898304;29;20132;-62
2022/11/26 04:53:54;;;;;;;36.50;13.23;;;;;;;;;;4897970;29;20071;-63
2022/11/26 04:56:19;;;;;;;31.48;12.68;;;;;;;;;;4895958;29;20036;-63
2022/11/26 04:58:45;;;;;;;33.47;12.10;;;;;;;;;;4898008;29;20390;-62
2022/11/26 05:01:10;;;;;;;40.80;14.57;;;;;;;;;;4917955;29;20041;-62
2022/11/26 05:03:36;;;;;;;41.10;14.45;;;;;;;;;;4911635;29;20041;-62
2022/11/26 05:06:02;;;;;;;33.33;12.95;;;;;;;;;;4894450;29;20036;-62
2022/11/26 05:08:27;;;;;;;38.15;13.57;;;;;;;;;;4898683;29;20474;-62
2022/11/26 05:10:54;;;;;;;38.55;13.68;;;;;;;;;;4897598;29;20117;-62
2022/11/26 05:13:20;;;;;;;35.10;13.02;;;;;;;;;;4896758;29;20119;-62
2022/11/26 05:15:46;;;;;;;33.72;12.45;;;;;;;;;;4907196;29;20119;-62
2022/11/26 05:18:11;;;;;;;37.35;12.32;;;;;;;;;;4898769;29;20491;-62
2022/11/26 05:20:37;;;;;;;41.22;13.07;;;;;;;;;;4896639;29;20032;-62
2022/11/26 05:23:02;;;;;;;37.35;12.40;;;;;;;;;;4896972;29;20955;-63
2022/11/26 05:25:28;;;;;;;33.65;12.35;;;;;;;;;;4914467;29;20445;-62
2022/11/26 05:27:53;;;;;;;39.03;13.23;;;;;;;;;;4901079;29;20036;-62
2022/11/26 05:30:19;;;;;;;31.77;12.57;;;;;;;;;;4906818;29;20103;-62
2022/11/26 05:32:44;;;;;;;33.13;12.18;;;;;;;;;;4912390;29;20042;-63
2022/11/26 05:35:10;;;;;;;36.72;12.05;;;;;;;;;;4912017;29;20115;-62
2022/11/26 05:37:35;;;;;;;32.22;11.00;;;;;;;;;;4894296;29;20093;-62
2022/11/26 05:40:01;;;;;;;33.90;10.95;;;;;;;;;;4899262;29;20722;-62
2022/11/26 05:42:26;;;;;;;29.13;11.40;;;;;;;;;;4907962;29;20075;-63
2022/11/26 05:44:52;;;;;;;34.45;10.18;;;;;;;;;;4905005;29;20028;-62
2022/11/26 05:47:17;;;;;;;27.25;9.90;;;;;;;;;;4901551;29;20029;-62
2022/11/26 05:49:42;;;;;;;25.88;9.50;;;;;;;;;;4907987;29;20120;-63
2022/11/26 05:52:08;;;;;;;25.13;10.30;;;;;;;;;;4896604;29;20375;-62
2022/11/26 05:54:33;;;;;;;22.83;10.27;;;;;;;;;;4896556;29;20099;-64
2022/11/26 05:56:58;;;;;;;28.30;9.63;;;;;;;;;;4908512;29;20486;-63
2022/11/26 05:59:24;;;;;;;26.52;10.40;;;;;;;;;;4896647;29;20032;-63
2022/11/26 06:01:49;;;;;;;29.48;10.65;;;;;;;;;;4896415;29;20032;-62
2022/11/26 06:04:15;;;;;;;27.63;10.25;;;;;;;;;;4895929;29;20514;-62
2022/11/26 06:06:40;;;;;;;38.55;10.70;;;;;;;;;;4897103;29;20039;-62
2022/11/26 06:09:06;;;;;;;30.67;10.88;;;;;;;;;;4900806;29;20039;-63
2022/11/26 06:11:31;;;;;;;33.45;11.07;;;;;;;;;;4917219;29;20055;-63
2022/11/26 06:13:56;;;;;;;32.15;11.43;;;;;;;;;;4906857;29;20036;-63
2022/11/26 06:16:22;;;;;;;23.08;10.75;;;;;;;;;;4897264;29;20088;-63
2022/11/26 06:18:47;;;;;;;37.17;10.73;;;;;;;;;;4895856;29;20037;-63
2022/11/26 06:21:13;;;;;;;34.08;11.27;;;;;;;;;;4898278;29;20067;-63
2022/11/26 06:23:39;;;;;;;30.42;10.30;;;;;;;;;;4899786;29;20342;-63
2022/11/26 06:26:11;;;;;;;35.70;11.82;;;;;;;;;;4904806;29;20033;-61
2022/11/26 06:28:38;;;;;;;41.67;12.68;;;;;;;;;;4895770;29;20040;-62
2022/11/26 06:31:03;;;;;;;37.42;12.43;;;;;;;;;;4896694;29;20040;-62
2022/11/26 06:33:29;;;;;;;44.22;12.23;;;;;;;;;;4912630;29;20086;-62
2022/11/26 06:36:00;;;;;;;38.38;12.13;;;;;;;;;;4910857;29;20267;-62
2022/11/26 06:38:27;;;;;;;46.92;12.77;;;;;;;;;;4900569;29;20028;-62
2022/11/26 06:41:04;;;;;;;35.60;11.13;;;;;;;;;;4902156;29;20032;-62
2022/11/26 06:43:30;;;;;;;35.50;12.07;;;;;;;;;;4886475;29;20043;-62
2022/11/26 06:46:09;;;;;;;33.53;11.43;;;;;;;;;;4901481;29;20036;-62
2022/11/26 06:48:35;;;;;;;44.45;12.40;;;;;;;;;;4896463;29;20040;-61
2022/11/26 06:51:07;;;;;;;34.83;11.00;;;;;;;;;;4907992;29;20119;-61
2022/11/26 06:53:32;;;;;;;;;;;;;;;;;;4896724;29;20053;-60
2022/11/26 06:56:12;;;;;;;37.22;10.98;;;;;;;;;;4896217;29;20039;-52
2022/11/26 06:58:37;;;;;;;38.50;13.25;;;;;;;;;;4896481;29;20485;-53
2022/11/26 07:01:15;;;;;;;33.88;12.38;;;;;;;;;;4896617;29;20092;-54
2022/11/26 07:03:40;;;;;;;35.10;12.93;;;;;;;;;;4896187;29;20064;-61
2022/11/26 07:06:15;;;;;;;41.63;13.45;;;;;;;;;;4915844;29;20064;-61
2022/11/26 07:08:40;;;;;;;40.22;12.70;;;;;;;;;;4911445;29;20054;-61
2022/11/26 07:11:05;;;;;;;35.65;12.80;;;;;;;;;;4915331;29;20624;-61
2022/11/26 07:13:31;;;;;;;36.97;12.32;;;;;;;;;;4909910;29;20092;-61
2022/11/26 07:16:01;;;;;;;33.78;11.93;;;;;;;;;;4915134;29;20426;-62
2022/11/26 07:18:29;;;;;;;30.27;11.15;;;;;;;;;;4914327;29;20383;-62
2022/11/26 07:20:55;;;;;;;37.30;10.93;;;;;;;;;;4898594;29;20036;-61
2022/11/26 07:23:20;;;;;;;36.17;11.75;;;;;;;;;;4901024;29;20068;-61
2022/11/26 07:25:46;;;;;;;30.17;10.75;;;;;;;;;;4915516;29;20061;-61
2022/11/26 07:28:11;;;;;;;32.97;12.05;;;;;;;;;;4895074;29;20069;-61
2022/11/26 07:30:37;;;;;;;33.45;12.02;;;;;;;;;;4894372;29;20036;-61
2022/11/26 07:33:02;;;;;;;37.55;13.60;;;;;;;;;;4909422;29;20047;-61
2022/11/26 07:35:28;;;;;;;37.00;12.32;;;;;;;;;;4895015;29;20359;-61
2022/11/26 07:37:53;;;;;;;50.10;13.35;;;;;;;;;;4909210;29;20036;-61
2022/11/26 07:40:19;;;;;;;42.88;13.65;;;;;;;;;;4914198;29;20115;-61
2022/11/26 07:42:45;;;;;;;39.90;13.90;;;;;;;;;;4913535;29;20457;-61
2022/11/26 07:45:10;;;;;;;44.40;14.77;;;;;;;;;;4914902;29;20429;-61
2022/11/26 07:47:35;;;;;;;39.03;15.13;;;;;;;;;;4911741;29;20144;-62
2022/11/26 07:50:02;;;;;;;45.25;15.95;;;;;;;;;;4912152;29;20079;-61
2022/11/26 07:52:28;;;;;;;39.78;15.45;;;;;;;;;;4901062;29;20045;-61
2022/11/26 07:54:53;;;;;;;43.58;14.73;;;;;;;;;;4893775;29;20471;-62
2022/11/26 07:57:21;;;;;;;37.47;14.80;;;;;;;;;;4897518;29;20040;-61
2022/11/26 07:59:46;;;;;;;44.20;14.63;;;;;;;;;;4897454;29;20036;-62
2022/11/26 08:02:13;;;;;;;47.15;15.45;;;;;;;;;;4911740;29;20040;-61
2022/11/26 08:04:39;;;;;;;46.13;15.00;;;;;;;;;;4914026;29;20040;-61
2022/11/26 08:07:04;;;;;;;45.08;15.00;;;;;;;;;;4914587;29;20116;-62
2022/11/26 08:09:30;;;;;;;51.38;15.88;;;;;;;;;;4894878;29;20055;-62
2022/11/26 08:11:55;;;;;;;48.80;16.05;;;;;;;;;;4914115;29;20086;-62
2022/11/26 08:14:21;;;;;;;46.65;15.90;;;;;;;;;;4912045;29;20032;-62
2022/11/26 08:16:46;;;;;;;46.60;16.70;;;;;;;;;;4898110;29;20040;-61
2022/11/26 08:19:12;;;;;;;56.10;19.38;;;;;;;;;;4894132;29;20512;-61
2022/11/26 08:21:38;;;;;;;65.15;19.33;;;;;;;;;;4911661;29;20119;-62
2022/11/26 08:24:04;;;;;;;55.72;19.30;;;;;;;;;;4913495;29;20063;-61
2022/11/26 08:26:30;;;;;;;56.22;19.23;;;;;;;;;;4917025;29;20036;-61
2022/11/26 08:28:55;;;;;;;57.75;19.42;;;;;;;;;;4916417;29;20024;-62
2022/11/26 08:31:23;;;;;;;64.28;19.85;;;;;;;;;;4900489;29;20059;-62
2022/11/26 08:33:48;;;;;;;54.53;19.27;;;;;;;;;;4899909;29;20041;-62
2022/11/26 08:36:14;;;;;;;56.42;19.48;;;;;;;;;;4913550;29;20028;-61
2022/11/26 08:38:40;;;;;;;56.60;19.85;;;;;;;;;;4914758;29;20426;-61
2022/11/26 08:41:08;;;;;;;49.10;18.77;;;;;;;;;;4917983;29;20040;-61
2022/11/26 08:43:35;;;;;;;54.67;17.60;;;;;;;;;;4914173;29;20042;-62
2022/11/26 08:46:00;;;;;;;54.25;18.70;;;;;;;;;;4899758;29;20024;-61
2022/11/26 08:48:27;;;;;;;47.70;17.27;;;;;;;;;;4901909;29;20055;-62
2022/11/26 08:51:01;;;;;;;57.83;18.67;;;;;;;;;;4898846;29;20491;-62
2022/11/26 08:53:27;;;;;;;54.17;18.00;;;;;;;;;;4918483;29;20052;-63
2022/11/26 08:56:01;;;;;;;58.65;17.05;;;;;;;;;;4916747;29;20035;-61
2022/11/26 08:58:27;;;;;;;50.60;16.20;;;;;;;;;;4915525;29;20044;-61
2022/11/26 09:00:52;;;;;;;37.50;14.15;;;;;;;;;;4917200;29;20035;-61
2022/11/26 09:03:18;;;;;;;39.25;14.18;;;;;;;;;;4897890;29;20063;-61
2022/11/26 09:05:43;;;;;;;39.42;15.13;;;;;;;;;;4913546;29;20448;-62
2022/11/26 09:08:09;;;;;;;44.80;14.13;;;;;;;;;;4899348;29;20055;-61
2022/11/26 09:10:34;;;;;;;40.47;15.15;;;;;;;;;;4898837;29;20051;-61
2022/11/26 09:13:00;;;;;;;41.10;14.88;;;;;;;;;;4904300;29;20032;-62
2022/11/26 09:15:25;;;;;;;41.53;14.63;;;;;;;;;;4910297;29;20469;-61
2022/11/26 09:17:50;;;;;;;42.25;14.43;;;;;;;;;;4900379;29;20040;-60
2022/11/26 09:20:16;;;;;;;34.58;13.00;;;;;;;;;;4897024;29;20178;-60
2022/11/26 09:22:41;;;;;;;33.55;11.20;;;;;;;;;;4897767;29;20028;-61
2022/11/26 09:25:08;;;;;;;31.58;12.35;;;;;;;;;;4886769;29;20044;-60
2022/11/26 09:27:33;;;;;;;30.10;11.85;;;;;;;;;;4911377;29;20048;-60
2022/11/26 09:29:59;;;;;;;25.33;9.95;;;;;;;;;;4895706;29;20158;-60
2022/11/26 09:32:24;;;;;;;27.73;9.95;;;;;;;;;;4899100;29;20386;-61
2022/11/26 09:34:51;;;;;;;26.85;11.38;;;;;;;;;;4905086;29;20064;-61
2022/11/26 09:37:17;;;;;;;34.63;10.60;;;;;;;;;;4891785;29;20152;-61
2022/11/26 09:39:43;;;;;;;31.67;11.55;;;;;;;;;;4917495;29;20494;-60
2022/11/26 09:42:30;;;;;;;34.25;11.40;;;;;;;;;;4901192;29;20131;-61
2022/11/26 09:45:18;;;;;;;29.55;10.90;;;;;;;;;;4901977;29;20036;-61
2022/11/26 09:47:47;;;;;;;29.90;10.15;;;;;;;;;;4898597;29;20052;-61
2022/11/26 09:50:12;;;;;;;30.85;10.70;;;;;;;;;;4909571;29;20036;-60
2022/11/26 09:52:52;;;;;;;31.60;10.38;;;;;;;;;;4906034;29;20107;-62
2022/11/26 09:55:30;;;;;;;31.33;11.50;;;;;;;;;;4901798;29;20044;-60
2022/11/26 09:58:00;;;;;;;30.02;10.85;;;;;;;;;;4897351;29;20032;-62
2022/11/26 10:00:37;;;;;;;29.30;10.10;;;;;;;;;;4898418;29;20055;-61
2022/11/26 10:03:33;;;;;;;26.98;10.15;;;;;;;;;;4890401;29;20115;-61
2022/11/26 10:06:07;;;;;;;26.13;10.23;;;;;;;;;;4892493;29;20032;-62
2022/11/26 10:08:54;;;;;;;24.83;9.82;;;;;;;;;;4904852;29;20036;-62
2022/11/26 10:11:28;;;;;;;26.52;10.13;;;;;;;;;;4898752;29;20063;-62
2022/11/26 10:13:54;;;;;;;21.83;8.40;;;;;;;;;;4896948;29;20040;-61
2022/11/26 10:16:36;;;;;;;23.20;9.27;;;;;;;;;;4903025;29;20045;-61
2022/11/26 10:19:25;;;;;;;23.17;8.50;;;;;;;;;;4878466;29;20099;-61
2022/11/26 10:21:54;;;;;;;20.15;7.97;;;;;;;;;;4897131;29;20082;-61
2022/11/26 10:24:31;;;;;;;21.90;8.18;;;;;;;;;;4896722;29;20047;-64
2022/11/26 10:27:03;;;;;;;19.52;8.45;;;;;;;;;;4880198;29;20041;-64
2022/11/26 10:29:41;;;;;;;21.52;7.63;;;;;;;;;;4891643;29;20508;-62
2022/11/26 10:32:19;;;;;;;20.42;7.18;;;;;;;;;;4897302;29;20041;-62
2022/11/26 10:34:56;;;;;;;21.27;7.00;;;;;;;;;;4902542;29;20043;-62
2022/11/26 10:37:24;;;;;;;17.15;7.05;;;;;;;;;;4897684;29;20040;-62
2022/11/26 10:39:56;;;;;;;19.73;6.43;;;;;;;;;;4907321;29;20389;-62
2022/11/26 10:42:22;;;;;;;17.70;6.00;;;;;;;;;;4890915;29;20044;-63
2022/11/26 10:44:49;;;;;;;15.40;5.93;;;;;;;;;;4897224;29;20381;-61
2022/11/26 10:47:29;;;;;;;17.40;5.88;;;;;;;;;;4904740;29;20051;-62
2022/11/26 10:50:24;;;;;;;15.07;5.63;;;;;;;;;;4902164;29;20031;-61
2022/11/26 10:52:53;;;;;;;15.98;5.40;;;;;;;;;;4902636;29;20081;-60
2022/11/26 10:55:27;;;;;;;18.45;5.47;;;;;;;;;;4886608;29;20563;-62
2022/11/26 10:58:23;;;;;;;17.55;5.60;;;;;;;;;;4909897;29;20043;-63
2022/11/26 11:00:48;;;;;;;15.70;4.53;;;;;;;;;;4890144;29;20029;-61
2022/11/26 11:03:20;;;;;;;18.42;5.50;;;;;;;;;;4877787;29;20435;-62
2022/11/26 11:05:45;;;;;;;16.45;5.15;;;;;;;;;;4892473;29;20037;-62
2022/11/26 11:08:13;;;;;;;20.08;4.95;;;;;;;;;;4884013;29;20036;-62
2022/11/26 11:10:52;;;;;;;14.85;4.43;;;;;;;;;;4897439;29;20048;-62
2022/11/26 11:13:18;;;;;;;20.17;4.15;;;;;;;;;;4896075;29;20040;-62
2022/11/26 11:15:43;;;;;;;14.60;4.18;;;;;;;;;;4895563;29;20095;-62
2022/11/26 11:18:15;;;;;;;13.45;3.83;;;;;;;;;;4895795;29;20037;-62
2022/11/26 11:20:49;;;;;;;11.43;3.78;;;;;;;;;;4897296;29;20028;-61
2022/11/26 11:23:14;;;;;;;15.77;4.32;;;;;;;;;;4910849;29;20036;-61
2022/11/26 11:25:44;;;;;;;13.60;3.50;;;;;;;;;;4896703;29;20039;-61
2022/11/26 11:28:15;;;;;;;13.73;3.58;;;;;;;;;;4896197;29;20088;-62
2022/11/26 11:30:43;;;;;;;13.80;3.35;;;;;;;;;;4896291;29;20039;-60
2022/11/26 11:33:31;;;;;;;12.63;3.40;;;;;;;;;;4895421;29;20037;-60
2022/11/26 11:36:06;;;;;;;18.20;3.78;;;;;;;;;;4881744;29;20085;-60
2022/11/26 11:38:52;;;;;;;9.50;2.72;;;;;;;;;;4878433;29;20039;-61
2022/11/26 11:41:30;;;;;;;13.05;3.47;;;;;;;;;;4877327;29;20037;-60
2022/11/26 11:43:58;;;;;;;14.00;3.47;;;;;;;;;;4878337;29;20128;-61
2022/11/26 11:46:30;;;;;;;12.50;2.80;;;;;;;;;;4891660;29;20033;-60
2022/11/26 11:49:04;;;;;;;14.60;3.63;;;;;;;;;;4896029;29;20080;-60
2022/11/26 11:51:40;;;;;;;15.43;3.17;;;;;;;;;;4893316;29;20047;-60
2022/11/26 11:54:28;;;;;;;11.20;2.80;;;;;;;;;;4877059;29;20059;-60
2022/11/26 11:57:34;;;;;;;17.40;3.42;;;;;;;;;;4888957;29;20046;-60
2022/11/26 12:00:17;;;;;;;16.52;3.25;;;;;;;;;;4892667;29;20044;-60
2022/11/26 12:02:48;;;;;;;13.73;3.40;;;;;;;;;;4896510;29;20158;-61
2022/11/26 12:05:47;;;;;;;19.33;4.57;;;;;;;;;;4895564;29;20068;-57
2022/11/26 12:08:39;;;;;;;13.75;3.33;;;;;;;;;;4894749;29;20043;-55
2022/11/26 12:11:07;;;;;;;14.43;3.20;;;;;;;;;;4877527;29;20052;-60
2022/11/26 12:13:42;;;;;;;15.13;3.78;;;;;;;;;;4892261;29;20116;-60
2022/11/26 12:16:11;;;;;;;16.85;3.40;;;;;;;;;;4896915;29;20132;-60
2022/11/26 12:18:36;;;;;;;16.92;3.30;;;;;;;;;;4896272;29;20041;-60
2022/11/26 12:21:10;;;;;;;17.65;3.55;;;;;;;;;;4895871;29;20434;-61
2022/11/26 12:23:44;;;;;;;11.60;3.05;;;;;;;;;;4897626;29;20068;-61
2022/11/26 12:26:25;;;;;;;19.77;3.90;;;;;;;;;;4887352;29;20069;-59
2022/11/26 12:28:53;;;;;;;14.40;3.03;;;;;;;;;;4877905;29;20088;-58
2022/11/26 12:31:27;;;;;;;14.07;2.80;;;;;;;;;;4876986;29;20284;-57
2022/11/26 12:34:13;;;;;;;16.85;3.50;;;;;;;;;;4885404;29;20032;-60
2022/11/26 12:36:52;;;;;;;11.63;2.75;;;;;;;;;;4894565;29;20051;-62
2022/11/26 12:39:41;;;;;;;11.50;2.58;;;;;;;;;;4894264;29;20041;-66
2022/11/26 12:42:29;;;;;;;13.48;3.33;;;;;;;;;;4911794;29;20043;-61
2022/11/26 12:45:01;;;;;;;16.23;3.17;;;;;;;;;;4909973;29;20115;-62
2022/11/26 12:47:40;;;;;;;15.95;3.15;;;;;;;;;;4895022;29;20106;-62
2022/11/26 12:50:34;;;;;;;16.95;3.58;;;;;;;;;;4895678;29;20067;-60
2022/11/26 12:53:18;;;;;;;11.18;3.33;;;;;;;;;;4896059;29;20044;-62
2022/11/26 12:56:13;;;;;;;16.20;3.72;;;;;;;;;;4895870;29;20068;-61
2022/11/26 12:59:18;;;;;;;13.18;3.05;;;;;;;;;;4895484;29;20465;-61
2022/11/26 13:01:43;;;;;;;13.30;2.95;;;;;;;;;;4875192;29;20037;-61
2022/11/26 13:04:09;;;;;;;17.17;3.05;;;;;;;;;;4881329;29;20035;-61
2022/11/26 13:06:59;;;;;;;20.40;3.65;;;;;;;;;;4879466;29;20033;-61
2022/11/26 13:09:39;;;;;;;14.67;3.37;;;;;;;;;;4893069;29;20294;-61
2022/11/26 13:12:18;;;;;;;15.55;3.42;;;;;;;;;;4891398;29;20039;-61
2022/11/26 13:14:53;;;;;;;17.95;3.40;;;;;;;;;;4887738;29;20033;-58
2022/11/26 13:17:29;;;;;;;12.73;3.45;;;;;;;;;;4891039;29;20047;-60
2022/11/26 13:20:27;;;;;;;17.42;3.42;;;;;;;;;;4890715;29;20164;-61
2022/11/26 13:23:04;;;;;;;16.63;5.25;;;;;;;;;;4895369;29;20039;-61
2022/11/26 13:26:01;;;;;;;19.63;4.60;;;;;;;;;;4894023;29;20403;-61
2022/11/26 13:28:47;;;;;;;20.02;3.67;;;;;;;;;;4894224;29;20232;-62
2022/11/26 13:31:57;;;;;;;19.67;3.95;;;;;;;;;;4887646;29;20464;-60
2022/11/26 13:34:41;;;;;;;15.48;3.15;;;;;;;;;;4876924;29;20171;-62
2022/11/26 13:37:45;;;;;;;16.45;3.67;;;;;;;;;;4886543;29;20043;-61
2022/11/26 13:40:23;;;;;;;13.40;3.88;;;;;;;;;;4891889;29;20134;-61
2022/11/26 13:43:15;;;;;;;18.33;3.53;;;;;;;;;;4896771;29;20100;-61
2022/11/26 13:45:52;;;;;;;12.82;3.53;;;;;;;;;;4904748;29;20039;-59
2022/11/26 13:48:57;;;;;;;11.70;2.95;;;;;;;;;;4908270;29;20036;-61
2022/11/26 13:51:38;;;;;;;11.25;4.00;;;;;;;;;;4892584;29;20052;-61
2022/11/26 13:54:30;;;;;;;15.10;2.95;;;;;;;;;;4894185;29;20060;-61
2022/11/26 13:57:04;;;;;;;12.52;3.22;;;;;;;;;;4902422;29;20391;-60
2022/11/26 13:59:30;;;;;;;14.40;3.50;;;;;;;;;;4900965;29;20032;-61
2022/11/26 14:01:56;;;;;;;17.73;3.92;;;;;;;;;;4897022;29;20438;-61
2022/11/26 14:04:21;;;;;;;13.68;3.35;;;;;;;;;;4893973;29;20036;-61
2022/11/26 14:07:05;;;;;;;15.45;3.80;;;;;;;;;;4893410;29;20076;-61
2022/11/26 14:09:46;;;;;;;16.05;3.40;;;;;;;;;;4889868;29;20239;-62
2022/11/26 14:12:16;;;;;;;17.00;3.30;;;;;;;;;;4893246;29;20083;-62
2022/11/26 14:14:42;;;;;;;15.67;3.90;;;;;;;;;;4894766;29;20153;-61
2022/11/26 14:17:07;;;;;;;15.43;3.67;;;;;;;;;;4892561;29;20039;-61
2022/11/26 14:19:39;;;;;;;15.55;3.47;;;;;;;;;;4888726;29;20041;-61
2022/11/26 14:22:07;;;;;;;16.13;3.22;;;;;;;;;;4896046;29;20033;-60
2022/11/26 14:24:48;;;;;;;13.98;3.15;;;;;;;;;;4891111;29;20920;-61
2022/11/26 14:27:14;;;;;;;13.95;4.07;;;;;;;;;;4889523;29;20041;-61
2022/11/26 14:29:39;;;;;;;14.20;4.15;;;;;;;;;;4892327;29;20490;-61
2022/11/26 14:32:12;;;;;;;13.60;3.33;;;;;;;;;;4894101;29;20044;-61
2022/11/26 14:34:46;;;;;;;16.05;3.35;;;;;;;;;;4885343;29;20040;-62
2022/11/26 14:37:14;;;;;;;18.92;3.42;;;;;;;;;;4893265;29;20084;-61
2022/11/26 14:39:40;;;;;;;16.98;3.42;;;;;;;;;;4894462;29;20025;-61
2022/11/26 14:42:05;;;;;;;19.33;4.53;;;;;;;;;;4908888;29;20052;-62
2022/11/26 14:44:31;;;;;;;16.15;3.53;;;;;;;;;;4893068;29;20644;-61